sensor_id;sensor_type;location;lat;lon;timestamp;P1;durP1;ratioP1;P2;durP2;ratioP2
86201;SDS011;76853;48.008;20.694;2024-03-06T00:00:21;7.15;;;7.15;;
86201;SDS011;76853;48.008;20.694;2024-03-06T00:01:25;7.92;;;7.92;;
86201;SDS011;76853;48.008;20.694;2024-03-06T00:02:28;7.28;;;7.28;;
86201;SDS011;76853;48.008;20.694;2024-03-06T00:03:32;7.70;;;7.70;;
86201;SDS011;76853;48.008;20.694;2024-03-06T00:04:36;7.55;;;7.55;;
86201;SDS011;76853;48.008;20.694;2024-03-06T00:05:40;7.88;;;7.88;;
86201;SDS011;76853;48.008;20.694;2024-03-06T00:06:43;7.58;;;7.58;;
86201;SDS011;76853;48.008;20.694;2024-03-06T00:07:47;7.78;;;7.78;;
86201;SDS011;76853;48.008;20.694;2024-03-06T00:08:51;7.60;;;7.60;;
86201;SDS011;76853;48.008;20.694;2024-03-06T00:09:54;7.87;;;7.87;;
86201;SDS011;76853;48.008;20.694;2024-03-06T00:10:58;8.03;;;8.03;;
86201;SDS011;76853;48.008;20.694;2024-03-06T00:12:01;7.83;;;7.83;;
86201;SDS011;76853;48.008;20.694;2024-03-06T00:13:07;7.85;;;7.85;;
86201;SDS011;76853;48.008;20.694;2024-03-06T00:14:11;7.58;;;7.58;;
86201;SDS011;76853;48.008;20.694;2024-03-06T00:15:17;7.45;;;7.40;;
86201;SDS011;76853;48.008;20.694;2024-03-06T00:16:20;8.03;;;7.95;;
86201;SDS011;76853;48.008;20.694;2024-03-06T00:17:24;7.48;;;7.47;;
86201;SDS011;76853;48.008;20.694;2024-03-06T00:18:27;7.87;;;7.87;;
86201;SDS011;76853;48.008;20.694;2024-03-06T00:19:33;7.95;;;7.95;;
86201;SDS011;76853;48.008;20.694;2024-03-06T00:20:37;7.82;;;7.80;;
86201;SDS011;76853;48.008;20.694;2024-03-06T00:21:40;7.93;;;7.75;;
86201;SDS011;76853;48.008;20.694;2024-03-06T00:22:43;7.67;;;7.67;;
86201;SDS011;76853;48.008;20.694;2024-03-06T00:23:47;7.88;;;7.88;;
86201;SDS011;76853;48.008;20.694;2024-03-06T00:24:51;7.90;;;7.90;;
86201;SDS011;76853;48.008;20.694;2024-03-06T00:25:54;7.85;;;7.85;;
86201;SDS011;76853;48.008;20.694;2024-03-06T00:26:58;7.40;;;7.40;;
86201;SDS011;76853;48.008;20.694;2024-03-06T00:28:01;7.95;;;7.95;;
86201;SDS011;76853;48.008;20.694;2024-03-06T00:29:04;7.87;;;7.87;;
86201;SDS011;76853;48.008;20.694;2024-03-06T00:30:08;7.77;;;7.77;;
86201;SDS011;76853;48.008;20.694;2024-03-06T00:31:12;7.62;;;7.62;;
86201;SDS011;76853;48.008;20.694;2024-03-06T00:32:15;7.98;;;7.98;;
86201;SDS011;76853;48.008;20.694;2024-03-06T00:33:18;7.78;;;7.78;;
86201;SDS011;76853;48.008;20.694;2024-03-06T00:34:22;8.10;;;8.10;;
86201;SDS011;76853;48.008;20.694;2024-03-06T00:35:25;7.98;;;7.98;;
86201;SDS011;76853;48.008;20.694;2024-03-06T00:36:28;7.98;;;7.98;;
86201;SDS011;76853;48.008;20.694;2024-03-06T00:37:31;8.00;;;8.00;;
86201;SDS011;76853;48.008;20.694;2024-03-06T00:38:34;7.80;;;7.77;;
86201;SDS011;76853;48.008;20.694;2024-03-06T00:39:38;7.73;;;7.73;;
86201;SDS011;76853;48.008;20.694;2024-03-06T00:40:44;8.42;;;8.42;;
86201;SDS011;76853;48.008;20.694;2024-03-06T00:41:47;7.88;;;7.88;;
86201;SDS011;76853;48.008;20.694;2024-03-06T00:42:50;8.07;;;8.07;;
86201;SDS011;76853;48.008;20.694;2024-03-06T00:43:53;7.87;;;7.87;;
86201;SDS011;76853;48.008;20.694;2024-03-06T00:44:56;7.87;;;7.87;;
86201;SDS011;76853;48.008;20.694;2024-03-06T00:46:00;8.20;;;8.20;;
86201;SDS011;76853;48.008;20.694;2024-03-06T00:47:03;8.08;;;8.08;;
86201;SDS011;76853;48.008;20.694;2024-03-06T00:48:07;8.60;;;8.60;;
86201;SDS011;76853;48.008;20.694;2024-03-06T00:49:14;8.20;;;8.20;;
86201;SDS011;76853;48.008;20.694;2024-03-06T00:50:17;8.33;;;8.33;;
86201;SDS011;76853;48.008;20.694;2024-03-06T00:51:24;7.90;;;7.90;;
86201;SDS011;76853;48.008;20.694;2024-03-06T00:52:43;8.53;;;8.53;;
86201;SDS011;76853;48.008;20.694;2024-03-06T00:53:47;8.65;;;8.65;;
86201;SDS011;76853;48.008;20.694;2024-03-06T00:54:51;8.90;;;8.90;;
86201;SDS011;76853;48.008;20.694;2024-03-06T00:55:54;8.67;;;8.67;;
86201;SDS011;76853;48.008;20.694;2024-03-06T00:56:57;8.83;;;8.83;;
86201;SDS011;76853;48.008;20.694;2024-03-06T00:58:05;8.58;;;8.57;;
86201;SDS011;76853;48.008;20.694;2024-03-06T00:59:09;8.88;;;8.88;;
86201;SDS011;76853;48.008;20.694;2024-03-06T01:00:13;8.52;;;8.52;;
86201;SDS011;76853;48.008;20.694;2024-03-06T01:01:19;8.77;;;8.77;;
86201;SDS011;76853;48.008;20.694;2024-03-06T01:02:22;9.07;;;9.07;;
86201;SDS011;76853;48.008;20.694;2024-03-06T01:03:25;8.27;;;8.27;;
86201;SDS011;76853;48.008;20.694;2024-03-06T01:04:28;8.68;;;8.68;;
86201;SDS011;76853;48.008;20.694;2024-03-06T01:05:32;8.72;;;8.72;;
86201;SDS011;76853;48.008;20.694;2024-03-06T01:06:36;9.05;;;9.05;;
86201;SDS011;76853;48.008;20.694;2024-03-06T01:07:39;8.68;;;8.68;;
86201;SDS011;76853;48.008;20.694;2024-03-06T01:08:43;9.32;;;9.32;;
86201;SDS011;76853;48.008;20.694;2024-03-06T01:09:46;9.32;;;9.32;;
86201;SDS011;76853;48.008;20.694;2024-03-06T01:10:49;8.95;;;8.95;;
86201;SDS011;76853;48.008;20.694;2024-03-06T01:11:53;8.88;;;8.88;;
86201;SDS011;76853;48.008;20.694;2024-03-06T01:12:59;9.27;;;9.27;;
86201;SDS011;76853;48.008;20.694;2024-03-06T01:14:03;8.55;;;8.55;;
86201;SDS011;76853;48.008;20.694;2024-03-06T01:15:06;8.72;;;8.72;;
86201;SDS011;76853;48.008;20.694;2024-03-06T01:16:12;9.70;;;9.70;;
86201;SDS011;76853;48.008;20.694;2024-03-06T01:17:15;8.92;;;8.92;;
86201;SDS011;76853;48.008;20.694;2024-03-06T01:18:18;9.33;;;9.33;;
86201;SDS011;76853;48.008;20.694;2024-03-06T01:19:23;8.73;;;8.73;;
86201;SDS011;76853;48.008;20.694;2024-03-06T01:20:26;8.58;;;8.58;;
86201;SDS011;76853;48.008;20.694;2024-03-06T01:21:29;8.95;;;8.95;;
86201;SDS011;76853;48.008;20.694;2024-03-06T01:22:37;9.17;;;9.17;;
86201;SDS011;76853;48.008;20.694;2024-03-06T01:23:40;9.12;;;9.12;;
86201;SDS011;76853;48.008;20.694;2024-03-06T01:24:43;8.72;;;8.72;;
86201;SDS011;76853;48.008;20.694;2024-03-06T01:25:47;9.17;;;9.17;;
86201;SDS011;76853;48.008;20.694;2024-03-06T01:26:50;8.95;;;8.95;;
86201;SDS011;76853;48.008;20.694;2024-03-06T01:27:54;9.18;;;9.18;;
86201;SDS011;76853;48.008;20.694;2024-03-06T01:28:57;9.30;;;9.30;;
86201;SDS011;76853;48.008;20.694;2024-03-06T01:30:01;9.32;;;9.32;;
86201;SDS011;76853;48.008;20.694;2024-03-06T01:31:04;9.38;;;9.38;;
86201;SDS011;76853;48.008;20.694;2024-03-06T01:32:07;9.00;;;9.00;;
86201;SDS011;76853;48.008;20.694;2024-03-06T01:33:13;9.13;;;9.13;;
86201;SDS011;76853;48.008;20.694;2024-03-06T01:34:17;8.77;;;8.67;;
86201;SDS011;76853;48.008;20.694;2024-03-06T01:35:20;9.47;;;9.47;;
86201;SDS011;76853;48.008;20.694;2024-03-06T01:36:24;9.10;;;9.10;;
86201;SDS011;76853;48.008;20.694;2024-03-06T01:37:27;9.30;;;9.30;;
86201;SDS011;76853;48.008;20.694;2024-03-06T01:38:30;8.93;;;8.93;;
86201;SDS011;76853;48.008;20.694;2024-03-06T01:39:33;9.47;;;9.47;;
86201;SDS011;76853;48.008;20.694;2024-03-06T01:40:42;9.58;;;9.58;;
86201;SDS011;76853;48.008;20.694;2024-03-06T01:41:50;9.73;;;9.73;;
86201;SDS011;76853;48.008;20.694;2024-03-06T01:42:54;9.40;;;9.40;;
86201;SDS011;76853;48.008;20.694;2024-03-06T01:44:00;9.78;;;9.78;;
86201;SDS011;76853;48.008;20.694;2024-03-06T01:45:04;9.82;;;9.82;;
86201;SDS011;76853;48.008;20.694;2024-03-06T01:46:08;9.42;;;9.42;;
86201;SDS011;76853;48.008;20.694;2024-03-06T01:47:11;9.40;;;9.40;;
86201;SDS011;76853;48.008;20.694;2024-03-06T01:48:16;9.05;;;9.03;;
86201;SDS011;76853;48.008;20.694;2024-03-06T01:49:22;9.47;;;9.47;;
86201;SDS011;76853;48.008;20.694;2024-03-06T01:50:44;9.65;;;9.55;;
86201;SDS011;76853;48.008;20.694;2024-03-06T01:51:48;9.72;;;9.62;;
86201;SDS011;76853;48.008;20.694;2024-03-06T01:52:55;9.52;;;9.48;;
86201;SDS011;76853;48.008;20.694;2024-03-06T01:54:00;9.57;;;9.57;;
86201;SDS011;76853;48.008;20.694;2024-03-06T01:55:07;9.42;;;9.42;;
86201;SDS011;76853;48.008;20.694;2024-03-06T01:56:11;9.27;;;9.27;;
86201;SDS011;76853;48.008;20.694;2024-03-06T01:57:21;9.37;;;9.37;;
86201;SDS011;76853;48.008;20.694;2024-03-06T01:58:25;9.27;;;9.27;;
86201;SDS011;76853;48.008;20.694;2024-03-06T01:59:29;9.43;;;9.43;;
86201;SDS011;76853;48.008;20.694;2024-03-06T02:00:39;9.50;;;9.50;;
86201;SDS011;76853;48.008;20.694;2024-03-06T02:01:45;9.33;;;9.28;;
86201;SDS011;76853;48.008;20.694;2024-03-06T02:02:48;9.52;;;9.52;;
86201;SDS011;76853;48.008;20.694;2024-03-06T02:03:51;9.20;;;9.20;;
86201;SDS011;76853;48.008;20.694;2024-03-06T02:04:56;9.32;;;9.32;;
86201;SDS011;76853;48.008;20.694;2024-03-06T02:06:03;8.98;;;8.93;;
86201;SDS011;76853;48.008;20.694;2024-03-06T02:07:09;9.75;;;9.70;;
86201;SDS011;76853;48.008;20.694;2024-03-06T02:08:13;9.67;;;9.62;;
86201;SDS011;76853;48.008;20.694;2024-03-06T02:09:21;9.55;;;9.50;;
86201;SDS011;76853;48.008;20.694;2024-03-06T02:10:27;9.27;;;9.27;;
86201;SDS011;76853;48.008;20.694;2024-03-06T02:11:30;9.22;;;9.17;;
86201;SDS011;76853;48.008;20.694;2024-03-06T02:12:33;9.23;;;9.23;;
86201;SDS011;76853;48.008;20.694;2024-03-06T02:13:37;9.75;;;9.75;;
86201;SDS011;76853;48.008;20.694;2024-03-06T02:14:42;10.08;;;9.98;;
86201;SDS011;76853;48.008;20.694;2024-03-06T02:15:46;9.88;;;9.88;;
86201;SDS011;76853;48.008;20.694;2024-03-06T02:16:51;9.88;;;9.87;;
86201;SDS011;76853;48.008;20.694;2024-03-06T02:17:56;10.32;;;10.32;;
86201;SDS011;76853;48.008;20.694;2024-03-06T02:18:59;10.17;;;10.15;;
86201;SDS011;76853;48.008;20.694;2024-03-06T02:20:03;10.18;;;10.18;;
86201;SDS011;76853;48.008;20.694;2024-03-06T02:21:09;10.48;;;10.48;;
86201;SDS011;76853;48.008;20.694;2024-03-06T02:22:12;10.42;;;10.40;;
86201;SDS011;76853;48.008;20.694;2024-03-06T02:23:15;10.05;;;10.00;;
86201;SDS011;76853;48.008;20.694;2024-03-06T02:24:22;10.52;;;10.17;;
86201;SDS011;76853;48.008;20.694;2024-03-06T02:25:26;10.32;;;10.32;;
86201;SDS011;76853;48.008;20.694;2024-03-06T02:26:29;9.82;;;9.82;;
86201;SDS011;76853;48.008;20.694;2024-03-06T02:27:35;9.55;;;9.55;;
86201;SDS011;76853;48.008;20.694;2024-03-06T02:28:46;10.40;;;10.40;;
86201;SDS011;76853;48.008;20.694;2024-03-06T02:29:50;10.15;;;10.15;;
86201;SDS011;76853;48.008;20.694;2024-03-06T02:30:53;10.18;;;10.18;;
86201;SDS011;76853;48.008;20.694;2024-03-06T02:31:56;10.47;;;10.47;;
86201;SDS011;76853;48.008;20.694;2024-03-06T02:33:01;10.17;;;10.17;;
86201;SDS011;76853;48.008;20.694;2024-03-06T02:34:04;10.42;;;10.42;;
86201;SDS011;76853;48.008;20.694;2024-03-06T02:35:09;10.90;;;10.90;;
86201;SDS011;76853;48.008;20.694;2024-03-06T02:36:13;10.82;;;10.77;;
86201;SDS011;76853;48.008;20.694;2024-03-06T02:37:17;10.52;;;10.48;;
86201;SDS011;76853;48.008;20.694;2024-03-06T02:38:20;10.53;;;10.53;;
86201;SDS011;76853;48.008;20.694;2024-03-06T02:39:23;10.60;;;10.43;;
86201;SDS011;76853;48.008;20.694;2024-03-06T02:40:27;11.68;;;11.28;;
86201;SDS011;76853;48.008;20.694;2024-03-06T02:41:30;10.45;;;10.30;;
86201;SDS011;76853;48.008;20.694;2024-03-06T02:42:33;10.70;;;10.63;;
86201;SDS011;76853;48.008;20.694;2024-03-06T02:43:37;10.37;;;10.37;;
86201;SDS011;76853;48.008;20.694;2024-03-06T02:44:43;10.20;;;10.20;;
86201;SDS011;76853;48.008;20.694;2024-03-06T02:45:46;10.35;;;10.35;;
86201;SDS011;76853;48.008;20.694;2024-03-06T02:46:50;10.53;;;10.53;;
86201;SDS011;76853;48.008;20.694;2024-03-06T02:47:53;10.57;;;10.57;;
86201;SDS011;76853;48.008;20.694;2024-03-06T02:48:57;10.37;;;10.37;;
86201;SDS011;76853;48.008;20.694;2024-03-06T02:50:00;10.33;;;10.33;;
86201;SDS011;76853;48.008;20.694;2024-03-06T02:51:04;10.83;;;10.83;;
86201;SDS011;76853;48.008;20.694;2024-03-06T02:52:07;10.43;;;10.43;;
86201;SDS011;76853;48.008;20.694;2024-03-06T02:53:12;10.07;;;9.93;;
86201;SDS011;76853;48.008;20.694;2024-03-06T02:54:16;10.98;;;10.57;;
86201;SDS011;76853;48.008;20.694;2024-03-06T02:55:21;9.97;;;9.95;;
86201;SDS011;76853;48.008;20.694;2024-03-06T02:56:26;10.20;;;10.18;;
86201;SDS011;76853;48.008;20.694;2024-03-06T02:57:29;10.87;;;10.85;;
86201;SDS011;76853;48.008;20.694;2024-03-06T02:58:32;10.52;;;10.52;;
86201;SDS011;76853;48.008;20.694;2024-03-06T02:59:35;10.28;;;10.28;;
86201;SDS011;76853;48.008;20.694;2024-03-06T03:00:42;10.15;;;10.15;;
86201;SDS011;76853;48.008;20.694;2024-03-06T03:01:46;10.58;;;10.58;;
86201;SDS011;76853;48.008;20.694;2024-03-06T03:02:49;10.32;;;10.32;;
86201;SDS011;76853;48.008;20.694;2024-03-06T03:03:52;10.72;;;10.72;;
86201;SDS011;76853;48.008;20.694;2024-03-06T03:04:55;10.97;;;10.87;;
86201;SDS011;76853;48.008;20.694;2024-03-06T03:05:59;11.05;;;10.75;;
86201;SDS011;76853;48.008;20.694;2024-03-06T03:07:02;11.48;;;11.22;;
86201;SDS011;76853;48.008;20.694;2024-03-06T03:08:06;11.08;;;10.92;;
86201;SDS011;76853;48.008;20.694;2024-03-06T03:09:12;10.68;;;10.68;;
86201;SDS011;76853;48.008;20.694;2024-03-06T03:10:15;10.98;;;10.88;;
86201;SDS011;76853;48.008;20.694;2024-03-06T03:11:19;10.45;;;10.32;;
86201;SDS011;76853;48.008;20.694;2024-03-06T03:12:22;11.40;;;11.22;;
86201;SDS011;76853;48.008;20.694;2024-03-06T03:13:25;11.62;;;11.58;;
86201;SDS011;76853;48.008;20.694;2024-03-06T03:14:28;11.58;;;11.30;;
86201;SDS011;76853;48.008;20.694;2024-03-06T03:15:32;10.90;;;10.82;;
86201;SDS011;76853;48.008;20.694;2024-03-06T03:16:39;11.02;;;11.02;;
86201;SDS011;76853;48.008;20.694;2024-03-06T03:17:42;11.02;;;10.97;;
86201;SDS011;76853;48.008;20.694;2024-03-06T03:18:46;11.72;;;11.68;;
86201;SDS011;76853;48.008;20.694;2024-03-06T03:19:50;10.75;;;10.75;;
86201;SDS011;76853;48.008;20.694;2024-03-06T03:20:57;11.48;;;11.48;;
86201;SDS011;76853;48.008;20.694;2024-03-06T03:22:00;10.67;;;10.67;;
86201;SDS011;76853;48.008;20.694;2024-03-06T03:23:07;10.85;;;10.85;;
86201;SDS011;76853;48.008;20.694;2024-03-06T03:24:14;11.15;;;11.15;;
86201;SDS011;76853;48.008;20.694;2024-03-06T03:25:18;11.27;;;11.27;;
86201;SDS011;76853;48.008;20.694;2024-03-06T03:26:24;11.43;;;11.42;;
86201;SDS011;76853;48.008;20.694;2024-03-06T03:27:28;12.05;;;12.03;;
86201;SDS011;76853;48.008;20.694;2024-03-06T03:28:31;11.77;;;11.77;;
86201;SDS011;76853;48.008;20.694;2024-03-06T03:29:35;11.03;;;11.03;;
86201;SDS011;76853;48.008;20.694;2024-03-06T03:30:38;11.77;;;11.73;;
86201;SDS011;76853;48.008;20.694;2024-03-06T03:31:42;12.33;;;12.18;;
86201;SDS011;76853;48.008;20.694;2024-03-06T03:32:46;11.23;;;11.23;;
86201;SDS011;76853;48.008;20.694;2024-03-06T03:33:49;11.78;;;11.75;;
86201;SDS011;76853;48.008;20.694;2024-03-06T03:34:53;11.88;;;11.80;;
86201;SDS011;76853;48.008;20.694;2024-03-06T03:35:56;12.07;;;11.97;;
86201;SDS011;76853;48.008;20.694;2024-03-06T03:37:03;11.90;;;11.52;;
86201;SDS011;76853;48.008;20.694;2024-03-06T03:38:06;11.77;;;11.70;;
86201;SDS011;76853;48.008;20.694;2024-03-06T03:39:10;12.20;;;12.20;;
86201;SDS011;76853;48.008;20.694;2024-03-06T03:40:20;12.58;;;12.45;;
86201;SDS011;76853;48.008;20.694;2024-03-06T03:41:24;12.67;;;12.43;;
86201;SDS011;76853;48.008;20.694;2024-03-06T03:42:28;12.08;;;11.85;;
86201;SDS011;76853;48.008;20.694;2024-03-06T03:43:31;12.45;;;12.27;;
86201;SDS011;76853;48.008;20.694;2024-03-06T03:44:36;12.48;;;12.48;;
86201;SDS011;76853;48.008;20.694;2024-03-06T03:45:39;11.75;;;11.67;;
86201;SDS011;76853;48.008;20.694;2024-03-06T03:46:42;11.62;;;11.62;;
86201;SDS011;76853;48.008;20.694;2024-03-06T03:47:48;11.98;;;11.98;;
86201;SDS011;76853;48.008;20.694;2024-03-06T03:48:52;11.72;;;11.72;;
86201;SDS011;76853;48.008;20.694;2024-03-06T03:49:55;11.82;;;11.82;;
86201;SDS011;76853;48.008;20.694;2024-03-06T03:51:13;12.10;;;12.10;;
86201;SDS011;76853;48.008;20.694;2024-03-06T03:52:16;12.47;;;12.47;;
86201;SDS011;76853;48.008;20.694;2024-03-06T03:53:20;11.45;;;11.45;;
86201;SDS011;76853;48.008;20.694;2024-03-06T03:54:23;12.20;;;12.20;;
86201;SDS011;76853;48.008;20.694;2024-03-06T03:55:28;12.08;;;12.02;;
86201;SDS011;76853;48.008;20.694;2024-03-06T03:56:31;12.12;;;12.08;;
86201;SDS011;76853;48.008;20.694;2024-03-06T03:57:35;12.07;;;12.07;;
86201;SDS011;76853;48.008;20.694;2024-03-06T03:58:40;12.15;;;12.15;;
86201;SDS011;76853;48.008;20.694;2024-03-06T03:59:43;12.47;;;12.45;;
86201;SDS011;76853;48.008;20.694;2024-03-06T04:00:46;12.33;;;12.25;;
86201;SDS011;76853;48.008;20.694;2024-03-06T04:01:49;12.95;;;12.93;;
86201;SDS011;76853;48.008;20.694;2024-03-06T04:02:53;12.10;;;12.10;;
86201;SDS011;76853;48.008;20.694;2024-03-06T04:03:58;12.30;;;12.30;;
86201;SDS011;76853;48.008;20.694;2024-03-06T04:05:01;13.38;;;13.35;;
86201;SDS011;76853;48.008;20.694;2024-03-06T04:06:09;12.35;;;12.33;;
86201;SDS011;76853;48.008;20.694;2024-03-06T04:07:13;12.48;;;12.48;;
86201;SDS011;76853;48.008;20.694;2024-03-06T04:08:19;12.45;;;12.42;;
86201;SDS011;76853;48.008;20.694;2024-03-06T04:09:23;13.62;;;13.10;;
86201;SDS011;76853;48.008;20.694;2024-03-06T04:10:29;14.12;;;13.50;;
86201;SDS011;76853;48.008;20.694;2024-03-06T04:11:31;13.32;;;13.07;;
86201;SDS011;76853;48.008;20.694;2024-03-06T04:12:37;12.93;;;12.93;;
86201;SDS011;76853;48.008;20.694;2024-03-06T04:13:41;12.65;;;12.65;;
86201;SDS011;76853;48.008;20.694;2024-03-06T04:14:44;13.50;;;13.40;;
86201;SDS011;76853;48.008;20.694;2024-03-06T04:15:47;13.50;;;13.33;;
86201;SDS011;76853;48.008;20.694;2024-03-06T04:16:53;14.03;;;13.70;;
86201;SDS011;76853;48.008;20.694;2024-03-06T04:17:57;13.25;;;13.22;;
86201;SDS011;76853;48.008;20.694;2024-03-06T04:19:00;13.62;;;13.62;;
86201;SDS011;76853;48.008;20.694;2024-03-06T04:20:05;14.17;;;14.02;;
86201;SDS011;76853;48.008;20.694;2024-03-06T04:21:09;13.72;;;13.62;;
86201;SDS011;76853;48.008;20.694;2024-03-06T04:22:13;13.55;;;13.43;;
86201;SDS011;76853;48.008;20.694;2024-03-06T04:23:17;13.25;;;13.17;;
86201;SDS011;76853;48.008;20.694;2024-03-06T04:24:21;13.07;;;12.97;;
86201;SDS011;76853;48.008;20.694;2024-03-06T04:25:27;13.22;;;13.22;;
86201;SDS011;76853;48.008;20.694;2024-03-06T04:26:30;13.68;;;13.65;;
86201;SDS011;76853;48.008;20.694;2024-03-06T04:27:33;13.75;;;13.38;;
86201;SDS011;76853;48.008;20.694;2024-03-06T04:28:36;13.48;;;13.10;;
86201;SDS011;76853;48.008;20.694;2024-03-06T04:29:40;13.92;;;13.73;;
86201;SDS011;76853;48.008;20.694;2024-03-06T04:30:44;14.58;;;14.10;;
86201;SDS011;76853;48.008;20.694;2024-03-06T04:31:48;14.28;;;14.00;;
86201;SDS011;76853;48.008;20.694;2024-03-06T04:32:51;14.68;;;14.23;;
86201;SDS011;76853;48.008;20.694;2024-03-06T04:33:54;15.07;;;14.63;;
86201;SDS011;76853;48.008;20.694;2024-03-06T04:34:57;13.68;;;13.62;;
86201;SDS011;76853;48.008;20.694;2024-03-06T04:36:05;13.93;;;13.93;;
86201;SDS011;76853;48.008;20.694;2024-03-06T04:37:08;13.82;;;13.72;;
86201;SDS011;76853;48.008;20.694;2024-03-06T04:38:12;15.05;;;14.57;;
86201;SDS011;76853;48.008;20.694;2024-03-06T04:39:17;14.50;;;13.93;;
86201;SDS011;76853;48.008;20.694;2024-03-06T04:40:21;14.67;;;14.32;;
86201;SDS011;76853;48.008;20.694;2024-03-06T04:41:27;13.80;;;13.72;;
86201;SDS011;76853;48.008;20.694;2024-03-06T04:42:31;14.55;;;14.17;;
86201;SDS011;76853;48.008;20.694;2024-03-06T04:43:34;13.93;;;13.67;;
86201;SDS011;76853;48.008;20.694;2024-03-06T04:44:37;13.75;;;13.53;;
86201;SDS011;76853;48.008;20.694;2024-03-06T04:45:40;13.62;;;13.40;;
86201;SDS011;76853;48.008;20.694;2024-03-06T04:46:49;13.53;;;13.28;;
86201;SDS011;76853;48.008;20.694;2024-03-06T04:47:53;14.28;;;14.07;;
86201;SDS011;76853;48.008;20.694;2024-03-06T04:48:56;13.77;;;13.58;;
86201;SDS011;76853;48.008;20.694;2024-03-06T04:50:00;12.98;;;12.98;;
86201;SDS011;76853;48.008;20.694;2024-03-06T04:51:03;14.35;;;14.35;;
86201;SDS011;76853;48.008;20.694;2024-03-06T04:52:06;13.17;;;13.17;;
86201;SDS011;76853;48.008;20.694;2024-03-06T04:53:11;13.87;;;13.87;;
86201;SDS011;76853;48.008;20.694;2024-03-06T04:54:14;14.45;;;14.42;;
86201;SDS011;76853;48.008;20.694;2024-03-06T04:55:18;13.65;;;13.43;;
86201;SDS011;76853;48.008;20.694;2024-03-06T04:56:26;13.95;;;13.88;;
86201;SDS011;76853;48.008;20.694;2024-03-06T04:57:30;14.20;;;14.20;;
86201;SDS011;76853;48.008;20.694;2024-03-06T04:58:34;14.63;;;14.25;;
86201;SDS011;76853;48.008;20.694;2024-03-06T04:59:37;14.38;;;14.28;;
86201;SDS011;76853;48.008;20.694;2024-03-06T05:00:40;13.35;;;13.35;;
86201;SDS011;76853;48.008;20.694;2024-03-06T05:01:43;13.63;;;13.62;;
86201;SDS011;76853;48.008;20.694;2024-03-06T05:02:47;14.08;;;14.02;;
86201;SDS011;76853;48.008;20.694;2024-03-06T05:04:11;14.53;;;14.12;;
86201;SDS011;76853;48.008;20.694;2024-03-06T05:05:31;14.77;;;14.20;;
86201;SDS011;76853;48.008;20.694;2024-03-06T05:06:52;14.53;;;14.10;;
86201;SDS011;76853;48.008;20.694;2024-03-06T05:08:14;14.48;;;14.13;;
86201;SDS011;76853;48.008;20.694;2024-03-06T05:09:35;14.77;;;14.15;;
86201;SDS011;76853;48.008;20.694;2024-03-06T05:10:56;15.57;;;14.83;;
86201;SDS011;76853;48.008;20.694;2024-03-06T05:12:16;14.97;;;14.35;;
86201;SDS011;76853;48.008;20.694;2024-03-06T05:13:37;14.98;;;14.72;;
86201;SDS011;76853;48.008;20.694;2024-03-06T05:14:59;14.25;;;14.05;;
86201;SDS011;76853;48.008;20.694;2024-03-06T05:16:19;14.22;;;13.97;;
86201;SDS011;76853;48.008;20.694;2024-03-06T05:17:42;16.05;;;15.35;;
86201;SDS011;76853;48.008;20.694;2024-03-06T05:19:04;14.87;;;14.72;;
86201;SDS011;76853;48.008;20.694;2024-03-06T05:20:25;14.98;;;14.70;;
86201;SDS011;76853;48.008;20.694;2024-03-06T05:21:45;16.45;;;15.72;;
86201;SDS011;76853;48.008;20.694;2024-03-06T05:23:06;15.30;;;14.67;;
86201;SDS011;76853;48.008;20.694;2024-03-06T05:24:26;14.42;;;14.10;;
86201;SDS011;76853;48.008;20.694;2024-03-06T05:25:47;15.07;;;15.05;;
86201;SDS011;76853;48.008;20.694;2024-03-06T05:27:08;15.07;;;14.87;;
86201;SDS011;76853;48.008;20.694;2024-03-06T05:28:30;14.68;;;14.53;;
86201;SDS011;76853;48.008;20.694;2024-03-06T05:29:50;15.88;;;15.30;;
86201;SDS011;76853;48.008;20.694;2024-03-06T05:31:17;15.45;;;15.27;;
86201;SDS011;76853;48.008;20.694;2024-03-06T05:32:39;15.37;;;15.07;;
86201;SDS011;76853;48.008;20.694;2024-03-06T05:34:01;15.97;;;15.33;;
86201;SDS011;76853;48.008;20.694;2024-03-06T05:35:22;14.63;;;14.63;;
86201;SDS011;76853;48.008;20.694;2024-03-06T05:36:43;14.75;;;14.75;;
86201;SDS011;76853;48.008;20.694;2024-03-06T05:38:05;15.50;;;15.18;;
86201;SDS011;76853;48.008;20.694;2024-03-06T05:39:29;15.08;;;15.03;;
86201;SDS011;76853;48.008;20.694;2024-03-06T05:40:52;15.85;;;15.38;;
86201;SDS011;76853;48.008;20.694;2024-03-06T05:42:13;15.57;;;15.22;;
86201;SDS011;76853;48.008;20.694;2024-03-06T05:43:34;15.55;;;15.05;;
86201;SDS011;76853;48.008;20.694;2024-03-06T05:44:55;15.25;;;14.65;;
86201;SDS011;76853;48.008;20.694;2024-03-06T05:46:27;15.77;;;15.52;;
86201;SDS011;76853;48.008;20.694;2024-03-06T05:47:48;16.02;;;15.40;;
86201;SDS011;76853;48.008;20.694;2024-03-06T05:49:10;14.78;;;14.78;;
86201;SDS011;76853;48.008;20.694;2024-03-06T05:50:30;15.87;;;15.52;;
86201;SDS011;76853;48.008;20.694;2024-03-06T05:51:51;15.40;;;15.22;;
86201;SDS011;76853;48.008;20.694;2024-03-06T05:53:12;15.57;;;15.18;;
86201;SDS011;76853;48.008;20.694;2024-03-06T05:54:33;17.08;;;16.48;;
86201;SDS011;76853;48.008;20.694;2024-03-06T05:55:56;15.62;;;15.47;;
86201;SDS011;76853;48.008;20.694;2024-03-06T05:57:16;16.83;;;16.37;;
86201;SDS011;76853;48.008;20.694;2024-03-06T05:58:37;17.03;;;16.33;;
86201;SDS011;76853;48.008;20.694;2024-03-06T05:59:40;16.82;;;16.20;;
86201;SDS011;76853;48.008;20.694;2024-03-06T06:00:43;16.58;;;16.07;;
86201;SDS011;76853;48.008;20.694;2024-03-06T06:01:50;16.03;;;15.52;;
86201;SDS011;76853;48.008;20.694;2024-03-06T06:02:53;16.47;;;16.07;;
86201;SDS011;76853;48.008;20.694;2024-03-06T06:03:56;17.08;;;16.67;;
86201;SDS011;76853;48.008;20.694;2024-03-06T06:04:59;15.80;;;15.80;;
86201;SDS011;76853;48.008;20.694;2024-03-06T06:06:22;17.12;;;16.72;;
86201;SDS011;76853;48.008;20.694;2024-03-06T06:07:26;17.38;;;16.98;;
86201;SDS011;76853;48.008;20.694;2024-03-06T06:08:30;17.15;;;16.98;;
86201;SDS011;76853;48.008;20.694;2024-03-06T06:09:33;16.70;;;16.30;;
86201;SDS011;76853;48.008;20.694;2024-03-06T06:10:36;16.82;;;16.52;;
86201;SDS011;76853;48.008;20.694;2024-03-06T06:11:39;17.27;;;16.68;;
86201;SDS011;76853;48.008;20.694;2024-03-06T06:12:42;17.58;;;17.23;;
86201;SDS011;76853;48.008;20.694;2024-03-06T06:13:46;17.13;;;16.68;;
86201;SDS011;76853;48.008;20.694;2024-03-06T06:14:49;17.27;;;16.58;;
86201;SDS011;76853;48.008;20.694;2024-03-06T06:15:53;16.62;;;16.38;;
86201;SDS011;76853;48.008;20.694;2024-03-06T06:16:56;17.05;;;17.00;;
86201;SDS011;76853;48.008;20.694;2024-03-06T06:18:00;16.80;;;16.62;;
86201;SDS011;76853;48.008;20.694;2024-03-06T06:19:03;16.92;;;16.82;;
86201;SDS011;76853;48.008;20.694;2024-03-06T06:20:07;16.83;;;16.67;;
86201;SDS011;76853;48.008;20.694;2024-03-06T06:21:12;17.47;;;17.30;;
86201;SDS011;76853;48.008;20.694;2024-03-06T06:22:16;17.88;;;17.88;;
86201;SDS011;76853;48.008;20.694;2024-03-06T06:23:19;17.42;;;17.42;;
86201;SDS011;76853;48.008;20.694;2024-03-06T06:24:24;18.95;;;18.58;;
86201;SDS011;76853;48.008;20.694;2024-03-06T06:25:27;18.12;;;17.65;;
86201;SDS011;76853;48.008;20.694;2024-03-06T06:26:31;18.03;;;17.65;;